createdAt,value
2019-05-22T00:01:10.246Z,92.20
2019-05-22T00:03:47.359Z,92.20
2019-05-22T00:06:19.032Z,92.40
2019-05-22T00:08:50.028Z,92.40
2019-05-22T00:11:21.328Z,92.10
2019-05-22T00:13:51.523Z,91.60
2019-05-22T00:16:22.142Z,91.30
2019-05-22T00:18:52.536Z,91.80
2019-05-22T00:21:22.836Z,92.20
2019-05-22T00:23:52.471Z,92.80
2019-05-22T00:26:23.444Z,93.00
2019-05-22T00:28:54.170Z,93.40
2019-05-22T00:31:23.380Z,92.90
2019-05-22T00:33:52.519Z,92.90
2019-05-22T00:36:23.316Z,93.50
2019-05-22T00:38:52.556Z,93.70
2019-05-22T00:41:23.717Z,93.70
2019-05-22T00:43:53.379Z,94.00
2019-05-22T00:46:24.079Z,94.30
2019-05-22T00:48:54.183Z,94.30
2019-05-22T00:51:36.554Z,93.80
2019-05-22T00:54:23.538Z,93.60
2019-05-22T00:56:58.023Z,94.00
2019-05-22T00:59:29.505Z,94.50
2019-05-22T01:02:03.765Z,94.60
2019-05-22T01:04:35.344Z,94.40
2019-05-22T01:07:07.662Z,94.80
2019-05-22T01:09:42.247Z,94.90
2019-05-22T01:12:17.489Z,95.30
2019-05-22T01:14:46.928Z,95.00
2019-05-22T01:17:17.839Z,95.10
2019-05-22T01:19:48.615Z,94.80
2019-05-22T01:22:18.041Z,94.70
2019-05-22T01:24:50.842Z,94.50
2019-05-22T01:27:21.864Z,94.70
2019-05-22T01:29:53.952Z,94.80
2019-05-22T01:32:24.903Z,95.20
2019-05-22T01:34:54.344Z,95.50
2019-05-22T01:37:26.119Z,95.50
2019-05-22T01:40:03.739Z,95.40
2019-05-22T01:42:37.118Z,95.20
2019-05-22T01:45:09.437Z,95.60
2019-05-22T01:47:42.480Z,96.00
2019-05-22T01:50:16.220Z,96.10
2019-05-22T01:52:48.416Z,95.60
2019-05-22T01:55:19.214Z,95.30
2019-05-22T01:57:50.486Z,94.40
2019-05-22T02:00:20.534Z,94.30
2019-05-22T02:02:51.993Z,94.30
2019-05-22T02:05:22.871Z,94.30
2019-05-22T02:07:51.952Z,94.50
2019-05-22T02:10:30.175Z,94.60
2019-05-22T02:13:03.259Z,94.50
2019-05-22T02:15:34.108Z,93.70
2019-05-22T02:18:08.066Z,93.20
2019-05-22T02:20:39.003Z,92.80
2019-05-22T02:23:08.549Z,92.60
2019-05-22T02:25:38.130Z,92.60
2019-05-22T02:28:09.206Z,92.70
2019-05-22T02:30:40.216Z,92.40
2019-05-22T02:33:11.038Z,93.30
2019-05-22T02:35:40.776Z,92.70
2019-05-22T02:38:10.278Z,92.50
2019-05-22T02:40:41.876Z,92.30
2019-05-22T02:43:11.804Z,91.80
2019-05-22T02:45:42.177Z,91.40
2019-05-22T02:48:12.027Z,91.40
2019-05-22T02:50:42.077Z,91.40
2019-05-22T02:55:42.443Z,91.00
2019-05-22T02:58:13.159Z,91.20
2019-05-22T03:00:48.468Z,91.00
2019-05-22T03:03:17.895Z,90.90
2019-05-22T03:05:48.367Z,90.50
2019-05-22T03:08:18.038Z,90.40
2019-05-22T03:10:49.223Z,90.40
2019-05-22T03:13:21.536Z,89.80
2019-05-22T03:15:50.748Z,89.50
2019-05-22T03:18:21.456Z,89.00
2019-05-22T03:20:50.695Z,88.10
2019-05-22T03:23:37.925Z,86.60
2019-05-22T03:26:09.193Z,86.20
2019-05-22T03:28:38.649Z,85.80
2019-05-22T03:31:09.388Z,84.40
2019-05-22T03:33:39.122Z,84.00
2019-05-22T03:36:15.018Z,83.30
2019-05-22T03:38:45.204Z,82.10
2019-05-22T03:41:15.507Z,82.00
2019-05-22T03:43:48.469Z,81.00
2019-05-22T03:46:27.436Z,80.30
2019-05-22T03:48:58.367Z,80.00
2019-05-22T03:51:27.599Z,79.30
2019-05-22T03:53:57.231Z,78.40
2019-05-22T03:59:08.803Z,78.10
2019-05-22T04:01:38.226Z,77.80
2019-05-22T04:04:07.463Z,78.30
2019-05-22T04:06:39.133Z,77.90
2019-05-22T04:09:20.343Z,77.70
2019-05-22T04:11:50.025Z,76.80
2019-05-22T04:14:21.292Z,76.50
2019-05-22T04:16:51.794Z,76.40
2019-05-22T04:19:21.415Z,75.80
2019-05-22T04:21:50.913Z,75.50
2019-05-22T04:24:20.461Z,75.50
2019-05-22T04:26:50.339Z,75.50
2019-05-22T04:29:19.551Z,75.40
2019-05-22T04:31:58.727Z,75.20
2019-05-22T04:34:29.000Z,75.00
2019-05-22T04:36:58.233Z,75.00
2019-05-22T04:39:29.612Z,75.10
2019-05-22T04:42:01.042Z,75.10
2019-05-22T04:44:30.293Z,74.80
2019-05-22T04:47:00.450Z,74.60
2019-05-22T04:49:29.552Z,75.00
2019-05-22T04:51:58.924Z,75.60
2019-05-22T04:54:28.177Z,75.00
2019-05-22T04:56:57.775Z,75.30
2019-05-22T04:59:27.108Z,74.90
2019-05-22T05:01:56.635Z,74.70
2019-05-22T05:04:26.880Z,74.40
2019-05-22T05:07:06.960Z,74.70
2019-05-22T05:09:36.257Z,75.00
2019-05-22T05:12:06.049Z,74.50
2019-05-22T05:14:36.463Z,73.90
2019-05-22T05:17:07.170Z,73.80
2019-05-22T05:19:36.404Z,74.10
2019-05-22T05:22:07.443Z,74.10
2019-05-22T05:24:36.508Z,74.10
2019-05-22T05:27:07.202Z,75.00
2019-05-22T05:29:36.739Z,74.70
2019-05-22T05:32:08.263Z,74.20
2019-05-22T05:34:40.685Z,74.50
2019-05-22T05:37:13.483Z,74.00
2019-05-22T05:39:48.445Z,73.80
2019-05-22T05:42:17.987Z,73.30
2019-05-22T05:44:47.126Z,74.60
2019-05-22T05:47:17.962Z,73.70
2019-05-22T05:49:47.392Z,74.10
2019-05-22T05:52:16.927Z,74.50
2019-05-22T05:54:47.876Z,74.00
2019-05-22T05:57:38.496Z,72.80
2019-05-22T06:00:11.748Z,73.10
2019-05-22T06:02:55.614Z,71.10
2019-05-22T06:05:12.279Z,70.20
2019-05-22T06:07:42.195Z,71.20
2019-05-22T06:10:29.412Z,70.00
2019-05-22T06:13:00.463Z,69.90
2019-05-22T06:15:47.006Z,70.50
2019-05-22T06:18:34.349Z,71.50
2019-05-22T06:21:06.152Z,70.90
2019-05-22T06:23:42.175Z,70.60
2019-05-22T06:26:23.111Z,71.00
2019-05-22T06:28:54.142Z,70.70
2019-05-22T06:31:42.729Z,70.60
2019-05-22T06:34:13.181Z,70.80
2019-05-22T06:36:42.937Z,69.30
2019-05-22T06:39:13.723Z,69.30
2019-05-22T06:41:45.988Z,70.00
2019-05-22T06:44:31.175Z,70.10
2019-05-22T06:47:00.989Z,71.30
2019-05-22T06:49:35.779Z,71.10
2019-05-22T06:52:07.300Z,71.40
2019-05-22T06:54:37.268Z,70.30
2019-05-22T06:57:09.398Z,70.40
2019-05-22T06:59:39.925Z,70.20
2019-05-22T07:02:10.237Z,69.70
2019-05-22T07:04:39.632Z,69.50
2019-05-22T07:07:11.860Z,69.10
2019-05-22T07:09:41.013Z,68.70
2019-05-22T07:12:10.721Z,68.60
2019-05-22T07:14:45.559Z,68.00
2019-05-22T07:17:17.217Z,68.20
2019-05-22T07:19:47.095Z,67.80
2019-05-22T07:22:16.510Z,67.50
2019-05-22T07:24:46.775Z,67.50
2019-05-22T07:27:24.963Z,66.50
2019-05-22T07:29:54.463Z,66.30
2019-05-22T07:32:23.722Z,66.20
2019-05-22T07:34:52.876Z,66.80
2019-05-22T07:37:22.950Z,66.10
2019-05-22T07:39:52.150Z,66.20
2019-05-22T07:42:21.377Z,66.80
2019-05-22T07:44:50.437Z,66.50
2019-05-22T07:47:23.322Z,66.50
2019-05-22T07:49:52.443Z,66.00
2019-05-22T07:52:21.947Z,66.20
2019-05-22T07:54:52.715Z,66.80
2019-05-22T07:57:24.592Z,65.80
2019-05-22T07:59:54.779Z,66.80
2019-05-22T08:02:27.822Z,66.30
2019-05-22T08:05:04.285Z,64.50
2019-05-22T08:07:37.431Z,63.70
2019-05-22T08:10:09.930Z,63.60
2019-05-22T08:12:40.217Z,64.40
2019-05-22T08:15:11.570Z,64.30
2019-05-22T08:17:43.005Z,64.10
2019-05-22T08:20:14.451Z,63.90
2019-05-22T08:22:47.803Z,63.90
2019-05-22T08:25:17.472Z,63.30
2019-05-22T08:27:48.428Z,64.50
2019-05-22T08:30:18.804Z,63.90
2019-05-22T08:32:48.389Z,64.20
2019-05-22T08:35:18.166Z,63.60
2019-05-22T08:37:49.782Z,63.50
2019-05-22T08:40:29.132Z,62.90
2019-05-22T08:43:05.403Z,63.00
2019-05-22T08:45:35.701Z,64.00
2019-05-22T08:48:05.764Z,64.20
2019-05-22T08:50:37.022Z,63.60
2019-05-22T08:53:08.378Z,62.10
2019-05-22T08:55:40.725Z,60.40
2019-05-22T08:58:10.145Z,60.40
2019-05-22T09:00:40.933Z,60.60
2019-05-22T09:03:11.775Z,60.40
2019-05-22T09:05:41.484Z,60.00
2019-05-22T09:08:10.705Z,61.60
2019-05-22T09:10:39.836Z,61.50
2019-05-22T09:13:10.438Z,62.10
2019-05-22T09:15:42.020Z,60.70
2019-05-22T09:18:12.264Z,60.80
2019-05-22T09:20:49.300Z,59.60
2019-05-22T09:23:13.053Z,60.00
2019-05-22T09:25:42.261Z,59.60
2019-05-22T09:28:12.124Z,59.40
2019-05-22T09:30:42.259Z,58.70
2019-05-22T09:33:12.627Z,59.00
2019-05-22T09:35:42.076Z,58.40
2019-05-22T09:38:15.380Z,58.50
2019-05-22T09:40:45.774Z,58.10
2019-05-22T09:43:15.172Z,59.30
2019-05-22T09:45:44.984Z,58.80
2019-05-22T09:48:14.728Z,57.50
2019-05-22T09:50:46.499Z,58.80
2019-05-22T09:53:24.349Z,57.70
2019-05-22T09:55:53.948Z,57.90
2019-05-22T09:58:23.114Z,56.10
2019-05-22T10:00:55.883Z,56.70
2019-05-22T10:03:25.315Z,56.90
2019-05-22T10:05:54.934Z,55.90
2019-05-22T10:08:24.408Z,55.50
2019-05-22T10:10:53.531Z,54.40
2019-05-22T10:13:24.473Z,54.00
2019-05-22T10:15:53.657Z,53.00
2019-05-22T10:18:22.960Z,52.30
2019-05-22T10:20:52.239Z,52.20
2019-05-22T10:23:22.383Z,51.60
2019-05-22T10:25:51.852Z,51.70
2019-05-22T10:28:21.642Z,51.00
2019-05-22T10:30:51.413Z,49.90
2019-05-22T10:33:20.966Z,49.90
2019-05-22T10:35:50.512Z,50.00
2019-05-22T10:38:20.210Z,49.60
2019-05-22T10:40:50.385Z,50.70
2019-05-22T10:43:19.760Z,50.20
2019-05-22T10:45:48.899Z,50.20
2019-05-22T10:48:19.305Z,50.60
2019-05-22T10:50:50.012Z,51.20
2019-05-22T10:53:32.814Z,51.90
2019-05-22T10:55:52.702Z,51.90
2019-05-22T10:58:23.199Z,51.90
2019-05-22T11:00:52.700Z,50.70
2019-05-22T11:03:22.182Z,50.80
2019-05-22T11:06:05.638Z,50.50
2019-05-22T11:08:24.383Z,50.70
2019-05-22T11:10:53.694Z,49.90
2019-05-22T11:13:23.183Z,49.50
2019-05-22T11:15:52.535Z,49.60
2019-05-22T11:18:21.848Z,49.00
2019-05-22T11:20:51.070Z,49.10
2019-05-22T11:23:21.132Z,49.30
2019-05-22T11:25:50.435Z,48.60
2019-05-22T11:28:20.200Z,48.10
2019-05-22T11:30:49.900Z,48.40
2019-05-22T11:33:19.312Z,48.40
2019-05-22T11:35:49.290Z,47.90
2019-05-22T11:38:18.458Z,48.30
2019-05-22T11:40:50.606Z,47.90
2019-05-22T11:43:19.667Z,47.50
2019-05-22T11:45:49.129Z,47.90
2019-05-22T11:48:18.553Z,47.70
2019-05-22T11:50:48.964Z,47.70
2019-05-22T11:53:18.307Z,47.50
2019-05-22T11:55:47.660Z,48.00
2019-05-22T11:58:17.120Z,47.40
2019-05-22T12:00:46.458Z,47.10
2019-05-22T12:03:15.601Z,46.60
2019-05-22T12:05:45.838Z,47.00
2019-05-22T12:08:15.152Z,48.50
2019-05-22T12:10:44.681Z,47.50
2019-05-22T12:13:14.563Z,47.30
2019-05-22T12:15:44.051Z,47.30
2019-05-22T12:18:13.213Z,47.90
2019-05-22T12:20:44.347Z,47.20
2019-05-22T12:23:13.419Z,48.10
2019-05-22T12:25:42.608Z,48.40
2019-05-22T12:28:11.637Z,48.60
2019-05-22T12:30:40.846Z,48.70
2019-05-22T12:33:13.858Z,49.10
2019-05-22T12:35:42.274Z,50.30
2019-05-22T12:38:13.762Z,50.50
2019-05-22T12:40:43.661Z,50.40
2019-05-22T12:43:12.867Z,51.00
2019-05-22T12:45:42.113Z,50.70
2019-05-22T12:48:11.614Z,50.90
2019-05-22T12:50:40.755Z,51.00
2019-05-22T12:53:12.599Z,51.10
2019-05-22T12:55:42.207Z,51.10
2019-05-22T12:58:11.338Z,51.50
2019-05-22T13:00:40.730Z,51.50
2019-05-22T13:03:11.770Z,51.50
2019-05-22T13:05:41.236Z,51.70
2019-05-22T13:08:13.412Z,52.00
2019-05-22T13:10:43.056Z,52.60
2019-05-22T13:13:12.914Z,53.50
2019-05-22T13:15:43.279Z,54.30
2019-05-22T13:18:15.763Z,54.40
2019-05-22T13:20:47.303Z,55.10
2019-05-22T13:23:16.974Z,55.90
2019-05-22T13:25:46.306Z,55.60
2019-05-22T13:28:18.373Z,55.80
2019-05-22T13:30:51.145Z,55.40
2019-05-22T13:33:24.875Z,55.40
2019-05-22T13:35:54.794Z,55.20
2019-05-22T13:38:24.385Z,55.40
2019-05-22T13:40:54.697Z,56.20
2019-05-22T13:43:24.495Z,56.10
2019-05-22T13:45:54.392Z,56.10
2019-05-22T13:48:23.868Z,57.10
2019-05-22T13:50:53.399Z,57.40
2019-05-22T13:53:22.897Z,58.10
2019-05-22T13:55:54.510Z,57.60
2019-05-22T13:58:25.220Z,58.00
2019-05-22T14:00:54.351Z,58.20
2019-05-22T14:03:24.103Z,58.70
2019-05-22T14:05:54.638Z,59.70
2019-05-22T14:08:24.271Z,60.50
2019-05-22T14:10:54.134Z,61.10
2019-05-22T14:13:25.612Z,61.30
2019-05-22T14:15:56.862Z,62.10
2019-05-22T14:18:25.871Z,62.40
2019-05-22T14:20:55.270Z,62.80
2019-05-22T14:23:24.879Z,63.40
2019-05-22T14:25:54.398Z,64.40
2019-05-22T14:28:25.264Z,67.30
2019-05-22T14:30:54.573Z,68.30
2019-05-22T14:33:27.938Z,68.30
2019-05-22T14:35:57.178Z,68.20
2019-05-22T14:38:26.844Z,68.80
2019-05-22T14:40:57.193Z,69.80
2019-05-22T14:43:26.876Z,75.60
2019-05-22T14:45:56.293Z,86.50
2019-05-22T14:48:25.711Z,91.00
2019-05-22T14:50:54.844Z,92.40
2019-05-22T14:53:24.184Z,91.60
2019-05-22T14:55:53.887Z,92.10
2019-05-22T14:58:23.986Z,93.30
2019-05-22T15:00:53.892Z,94.40
2019-05-22T15:03:23.303Z,94.50
2019-05-22T15:05:52.616Z,94.00
2019-05-22T15:08:21.827Z,95.00
2019-05-22T15:10:51.371Z,96.00
2019-05-22T15:13:20.954Z,95.30
2019-05-22T15:15:50.255Z,94.90
2019-05-22T15:18:19.366Z,95.80
2019-05-22T15:21:06.132Z,97.30
2019-05-22T15:23:37.344Z,96.00
2019-05-22T15:26:06.780Z,93.20
2019-05-22T15:28:36.481Z,93.20
2019-05-22T15:31:06.267Z,92.40
2019-05-22T15:33:36.086Z,91.30
2019-05-22T15:36:08.085Z,90.30
2019-05-22T15:38:40.531Z,90.20
2019-05-22T15:41:11.453Z,89.90
2019-05-22T15:43:43.259Z,89.80
2019-05-22T15:46:14.803Z,90.00
2019-05-22T15:48:45.354Z,89.30
2019-05-22T15:51:16.638Z,86.80
2019-05-22T15:53:46.964Z,85.90
2019-05-22T15:56:16.396Z,84.90
2019-05-22T15:58:48.874Z,83.80
2019-05-22T16:01:21.775Z,85.10
2019-05-22T16:03:51.876Z,84.70
2019-05-22T16:06:23.516Z,84.90
2019-05-22T16:08:53.862Z,83.50
2019-05-22T16:11:26.086Z,83.30
2019-05-22T16:13:56.853Z,80.60
2019-05-22T16:16:26.950Z,81.10
2019-05-22T16:18:59.972Z,77.90
2019-05-22T16:21:29.809Z,78.50
2019-05-22T16:23:59.605Z,77.10
2019-05-22T16:26:29.902Z,76.70
2019-05-22T16:29:01.586Z,76.00
2019-05-22T16:31:33.032Z,75.20
2019-05-22T16:34:02.588Z,74.50
2019-05-22T16:36:33.235Z,74.80
2019-05-22T16:39:04.299Z,74.80
2019-05-22T16:41:33.994Z,74.60
2019-05-22T16:44:03.986Z,74.50
2019-05-22T16:46:33.992Z,73.30
2019-05-22T16:49:03.826Z,72.60
2019-05-22T16:51:33.146Z,73.70
2019-05-22T16:54:06.219Z,73.70
2019-05-22T16:56:35.896Z,73.20
2019-05-22T16:59:07.466Z,74.60
2019-05-22T17:01:56.860Z,74.00
2019-05-22T17:04:08.307Z,73.30
2019-05-22T17:06:38.721Z,74.10
2019-05-22T17:09:11.345Z,73.70
2019-05-22T17:11:41.497Z,74.50
2019-05-22T17:14:11.936Z,73.90
2019-05-22T17:16:41.301Z,73.00
2019-05-22T17:19:25.759Z,73.50
2019-05-22T17:21:43.007Z,73.80
2019-05-22T17:24:14.686Z,74.10
2019-05-22T17:26:44.699Z,74.70
2019-05-22T17:29:14.913Z,73.70
2019-05-22T17:31:44.767Z,74.80
2019-05-22T17:34:33.486Z,75.00
2019-05-22T17:37:06.963Z,75.60
2019-05-22T17:39:38.228Z,76.00
2019-05-22T17:42:10.634Z,75.00
2019-05-22T17:44:42.296Z,74.70
2019-05-22T17:47:12.486Z,74.30
2019-05-22T17:49:42.697Z,74.80
2019-05-22T17:52:12.716Z,74.60
2019-05-22T17:54:42.112Z,74.40
2019-05-22T17:57:11.612Z,74.90
2019-05-22T17:59:40.916Z,73.70
2019-05-22T18:02:11.796Z,73.50
2019-05-22T18:04:41.029Z,73.70
2019-05-22T18:07:10.205Z,74.40
2019-05-22T18:09:39.477Z,74.00
2019-05-22T18:12:08.755Z,74.50
2019-05-22T18:14:38.047Z,74.10
2019-05-22T18:17:07.948Z,73.60
2019-05-22T18:19:37.177Z,73.80
2019-05-22T18:22:08.155Z,73.30
2019-05-22T18:24:37.459Z,73.30
2019-05-22T18:27:06.638Z,73.30
2019-05-22T18:29:35.936Z,73.80
2019-05-22T18:32:06.732Z,75.00
2019-05-22T18:34:35.882Z,75.40
2019-05-22T18:37:05.185Z,75.70
2019-05-22T18:39:35.699Z,76.20
2019-05-22T18:42:05.847Z,76.10
2019-05-22T18:44:35.062Z,76.50
2019-05-22T18:47:04.879Z,76.20
2019-05-22T18:49:36.658Z,77.10
2019-05-22T18:52:06.083Z,76.60
2019-05-22T18:54:35.432Z,76.60
2019-05-22T18:57:04.852Z,76.80
2019-05-22T18:59:34.237Z,77.00
2019-05-22T19:02:04.545Z,77.00
2019-05-22T19:04:34.038Z,77.40
2019-05-22T19:07:04.033Z,77.90
2019-05-22T19:09:33.431Z,77.90
2019-05-22T19:12:03.085Z,78.00
2019-05-22T19:14:32.535Z,78.50
2019-05-22T19:17:01.909Z,78.70
2019-05-22T19:19:31.148Z,79.00
2019-05-22T19:22:00.687Z,78.90
2019-05-22T19:24:29.810Z,79.50
2019-05-22T19:26:58.977Z,79.80
2019-05-22T19:29:28.217Z,79.90
2019-05-22T19:31:57.352Z,80.00
2019-05-22T19:34:26.427Z,80.40
2019-05-22T19:36:55.719Z,80.70
2019-05-22T19:39:25.317Z,81.40
2019-05-22T19:42:03.401Z,81.50
2019-05-22T19:44:25.152Z,81.70
2019-05-22T19:46:54.391Z,81.50
2019-05-22T19:49:23.977Z,81.20
2019-05-22T19:51:55.189Z,81.60
2019-05-22T19:54:24.349Z,82.20
2019-05-22T19:56:53.563Z,82.60
2019-05-22T19:59:23.623Z,83.20
2019-05-22T20:01:53.181Z,83.60
2019-05-22T20:04:22.788Z,83.80
2019-05-22T20:06:52.183Z,83.60
2019-05-22T20:09:21.808Z,83.40
2019-05-22T20:11:51.088Z,83.70
2019-05-22T20:14:20.282Z,83.50
2019-05-22T20:16:49.512Z,83.70
2019-05-22T20:19:18.910Z,84.30
2019-05-22T20:21:48.337Z,87.40
2019-05-22T20:24:17.501Z,88.10
2019-05-22T20:26:46.583Z,88.10
2019-05-22T20:29:16.294Z,87.20
2019-05-22T20:31:45.511Z,86.90
2019-05-22T20:34:15.323Z,87.10
2019-05-22T20:36:44.975Z,87.10
2019-05-22T20:39:15.951Z,87.60
2019-05-22T20:41:45.195Z,87.60
2019-05-22T20:44:15.667Z,87.00
2019-05-22T20:46:46.217Z,88.10
2019-05-22T20:49:15.745Z,88.60
2019-05-22T20:51:46.015Z,89.00
2019-05-22T20:54:16.996Z,89.00
2019-05-22T20:56:47.998Z,89.10
2019-05-22T20:59:17.237Z,88.90
2019-05-22T21:01:46.974Z,89.00
2019-05-22T21:04:19.746Z,89.00
2019-05-22T21:06:54.719Z,88.50
2019-05-22T21:09:24.750Z,88.30
2019-05-22T21:11:54.417Z,88.50
2019-05-22T21:14:23.964Z,89.20
2019-05-22T21:16:53.203Z,88.10
2019-05-22T21:19:24.004Z,88.70
2019-05-22T21:21:54.024Z,88.80
2019-05-22T21:24:23.407Z,89.10
2019-05-22T21:26:53.021Z,89.70
2019-05-22T21:29:22.963Z,89.50
2019-05-22T21:31:52.502Z,89.60
2019-05-22T21:34:22.137Z,90.00
2019-05-22T21:36:51.537Z,90.20
2019-05-22T21:39:22.145Z,90.40
2019-05-22T21:41:51.300Z,90.70
2019-05-22T21:44:20.431Z,90.60
2019-05-22T21:46:50.649Z,91.00
2019-05-22T21:49:20.054Z,90.90
2019-05-22T21:51:49.352Z,90.90
2019-05-22T21:54:19.597Z,91.20
2019-05-22T21:56:49.835Z,90.90
2019-05-22T21:59:19.444Z,90.80
2019-05-22T22:01:50.243Z,90.90
2019-05-22T22:04:21.140Z,90.80
2019-05-22T22:06:52.736Z,90.80
2019-05-22T22:09:22.415Z,91.00
2019-05-22T22:11:52.837Z,91.00
2019-05-22T22:14:24.066Z,91.40
2019-05-22T22:16:53.617Z,92.30
2019-05-22T22:19:26.126Z,92.80
2019-05-22T22:21:56.142Z,93.20
2019-05-22T22:24:26.353Z,93.30
2019-05-22T22:26:56.866Z,93.40
2019-05-22T22:29:26.367Z,93.80
2019-05-22T22:31:57.479Z,94.20
2019-05-22T22:34:29.901Z,94.60
2019-05-22T22:36:59.457Z,95.00
2019-05-22T22:39:30.597Z,95.30
2019-05-22T22:42:00.626Z,95.20
2019-05-22T22:44:30.880Z,94.90
2019-05-22T22:47:03.419Z,94.70
2019-05-22T22:49:32.851Z,94.60
2019-05-22T22:52:02.380Z,94.20
2019-05-22T22:54:31.645Z,94.20
2019-05-22T22:57:00.881Z,94.30
2019-05-22T22:59:30.422Z,94.50
2019-05-22T23:02:01.232Z,94.60
2019-05-22T23:04:30.834Z,94.60
2019-05-22T23:07:03.143Z,94.70
2019-05-22T23:09:33.417Z,94.80
2019-05-22T23:12:04.340Z,95.00
2019-05-22T23:14:33.823Z,95.10
2019-05-22T23:17:03.763Z,95.30
2019-05-22T23:19:32.122Z,95.50
2019-05-22T23:22:01.463Z,95.60
2019-05-22T23:24:31.028Z,95.70
2019-05-22T23:27:00.986Z,96.00
2019-05-22T23:29:30.827Z,96.10
2019-05-22T23:32:00.741Z,96.30
2019-05-22T23:34:30.719Z,96.40
2019-05-22T23:37:00.735Z,96.20
2019-05-22T23:39:32.212Z,96.60
2019-05-22T23:42:07.174Z,96.60
2019-05-22T23:44:38.319Z,96.80
2019-05-22T23:47:08.063Z,96.70
2019-05-22T23:49:39.708Z,97.00
2019-05-22T23:52:10.304Z,97.30
2019-05-22T23:54:40.090Z,97.40
2019-05-22T23:57:10.861Z,97.60
2019-05-22T23:59:42.463Z,97.70
